Time;durP1;ratioP1;P1;durP2;ratioP2;P2;SDS_P1;SDS_P2;PMS_P1;PMS_P2;Temp;Humidity;BMP_temperature;BMP_pressure;BME280_temperature;BME280_humidity;BME280_pressure;Samples;Min_cycle;Max_cycle;Signal;HPM_P1;HPM_P2
2020/12/13 00:03:40;;;;;;;7.40;6.57;;;8.30;99.90;;;;;;10195442;29;20677;-82
2020/12/13 00:08:43;;;;;;;7.07;6.37;;;8.30;99.90;;;;;;10196475;29;20228;-81
2020/12/13 00:13:44;;;;;;;6.30;5.73;;;8.30;99.90;;;;;;10219039;29;20642;-81
2020/12/13 00:18:46;;;;;;;8.27;7.57;;;8.30;99.90;;;;;;10228052;29;20225;-82
2020/12/13 00:23:48;;;;;;;7.70;7.00;;;8.30;99.90;;;;;;10230038;29;20209;-82
2020/12/13 00:28:50;;;;;;;6.53;5.97;;;8.40;99.90;;;;;;10229559;29;20275;-81
2020/12/13 00:33:52;;;;;;;6.07;5.57;;;8.40;99.90;;;;;;10224792;29;20288;-81
2020/12/13 00:38:54;;;;;;;5.90;5.40;;;8.30;99.90;;;;;;10218531;29;20277;-81
2020/12/13 00:43:56;;;;;;;6.30;5.80;;;8.30;99.90;;;;;;10195035;29;20212;-81
2020/12/13 00:48:58;;;;;;;5.20;4.80;;;8.30;99.90;;;;;;10222751;29;20236;-82
2020/12/13 00:54:01;;;;;;;4.97;4.57;;;8.30;99.90;;;;;;10193023;28;20227;-82
2020/12/13 00:59:03;;;;;;;4.83;4.50;;;8.40;99.90;;;;;;10205182;29;20225;-82
2020/12/13 01:04:05;;;;;;;4.73;4.40;;;8.40;99.90;;;;;;10206431;29;20209;-82
2020/12/13 01:09:07;;;;;;;4.57;4.27;;;8.40;99.90;;;;;;10209150;29;20277;-83
2020/12/13 01:14:09;;;;;;;5.07;4.67;;;8.30;99.90;;;;;;10201661;29;20202;-80
2020/12/13 01:19:11;;;;;;;5.07;4.67;;;8.30;99.90;;;;;;10191642;29;20248;-82
2020/12/13 01:24:13;;;;;;;4.83;4.07;;;8.40;99.90;;;;;;10198503;29;20217;-82
2020/12/13 01:29:15;;;;;;;4.17;3.87;;;8.40;99.90;;;;;;10196702;29;20225;-80
2020/12/13 01:34:16;;;;;;;4.67;4.27;;;8.30;99.90;;;;;;10210135;29;20267;-81
2020/12/13 01:39:19;;;;;;;4.33;4.03;;;8.30;99.90;;;;;;10200253;29;20315;-80
2020/12/13 01:44:20;;;;;;;4.70;4.40;;;8.30;99.90;;;;;;10184511;29;20529;-81
2020/12/13 01:49:22;;;;;;;4.30;4.00;;;8.20;99.90;;;;;;10184299;29;20723;-80
2020/12/13 01:54:26;;;;;;;4.57;4.27;;;8.20;99.90;;;;;;10198547;29;20197;-82
2020/12/13 01:59:30;;;;;;;4.97;4.57;;;8.20;99.90;;;;;;10181662;29;20237;-82
2020/12/13 02:04:35;;;;;;;4.40;4.10;;;8.10;99.90;;;;;;10194856;29;20597;-81
2020/12/13 02:09:37;;;;;;;4.23;3.93;;;8.10;99.90;;;;;;10181341;29;20240;-81
2020/12/13 02:14:39;;;;;;;4.40;4.00;;;8.10;99.90;;;;;;10198636;29;20209;-79
2020/12/13 02:19:40;;;;;;;4.50;4.10;;;8.10;99.90;;;;;;10198154;29;20233;-82
2020/12/13 02:24:43;;;;;;;4.60;4.30;;;8.10;99.90;;;;;;10179087;29;20240;-80
2020/12/13 02:29:44;;;;;;;4.33;3.87;;;8.10;99.90;;;;;;10197871;29;20239;-81
2020/12/13 02:34:46;;;;;;;4.10;3.70;;;8.20;99.90;;;;;;10180968;29;20211;-80
2020/12/13 02:39:49;;;;;;;4.10;3.80;;;8.20;99.90;;;;;;10177233;29;20230;-82
2020/12/13 02:44:51;;;;;;;3.77;3.47;;;8.20;99.90;;;;;;10215437;29;20292;-82
2020/12/13 02:49:53;;;;;;;3.67;3.37;;;8.20;99.90;;;;;;10176026;29;20225;-82
2020/12/13 02:54:55;;;;;;;3.70;3.40;;;8.30;99.90;;;;;;10178575;29;20200;-82
2020/12/13 02:59:57;;;;;;;4.00;3.70;;;8.30;99.90;;;;;;10182234;29;20721;-81
2020/12/13 03:04:58;;;;;;;3.90;3.60;;;8.30;99.90;;;;;;10194367;29;20240;-82
2020/12/13 03:10:01;;;;;;;3.60;3.30;;;8.30;99.90;;;;;;10180339;29;20227;-81
2020/12/13 03:15:03;;;;;;;4.03;3.73;;;8.30;99.90;;;;;;10214739;29;20264;-80
2020/12/13 03:20:04;;;;;;;3.20;3.00;;;8.30;99.90;;;;;;10205208;29;20307;-81
2020/12/13 03:25:07;;;;;;;3.07;2.80;;;8.30;99.90;;;;;;10197985;29;20284;-82
2020/12/13 03:30:09;;;;;;;2.73;2.53;;;8.30;99.90;;;;;;10232921;29;20248;-82
2020/12/13 03:35:10;;;;;;;3.50;3.20;;;8.40;99.90;;;;;;10227532;29;20204;-83
2020/12/13 03:40:13;;;;;;;3.40;3.10;;;8.50;99.90;;;;;;10221089;29;20221;-83
2020/12/13 03:45:15;;;;;;;3.10;2.90;;;8.50;99.90;;;;;;10222249;29;20588;-83
2020/12/13 03:50:17;;;;;;;3.17;2.97;;;8.40;99.90;;;;;;10197812;29;20284;-83
2020/12/13 03:55:19;;;;;;;2.93;2.73;;;8.40;99.90;;;;;;10223452;29;20229;-83
2020/12/13 04:00:21;;;;;;;3.90;3.60;;;8.40;99.90;;;;;;10209438;29;20232;-80
2020/12/13 04:05:23;;;;;;;3.40;3.20;;;8.40;99.90;;;;;;10205823;29;20757;-81
2020/12/13 04:10:26;;;;;;;3.60;3.40;;;8.40;99.90;;;;;;10198564;29;20736;-82
2020/12/13 04:15:28;;;;;;;3.23;3.03;;;8.40;99.90;;;;;;10181152;29;20193;-81
2020/12/13 04:20:29;;;;;;;3.13;2.93;;;8.40;99.90;;;;;;10198914;29;20225;-80
2020/12/13 04:25:32;;;;;;;3.23;3.00;;;8.50;99.90;;;;;;10197953;29;20745;-82
2020/12/13 04:30:34;;;;;;;3.70;3.40;;;8.50;99.90;;;;;;10220872;29;20225;-81
2020/12/13 04:35:35;;;;;;;2.97;2.77;;;8.50;99.90;;;;;;10181469;29;20285;-80
2020/12/13 04:40:38;;;;;;;3.67;3.40;;;8.50;99.90;;;;;;10219304;29;20708;-80
2020/12/13 04:45:40;;;;;;;3.53;3.30;;;8.60;99.90;;;;;;10212579;29;20313;-82
2020/12/13 04:50:41;;;;;;;3.63;3.33;;;8.60;99.90;;;;;;10205050;29;20251;-81
2020/12/13 04:55:52;;;;;;;3.13;2.93;;;8.60;99.90;;;;;;10202858;29;20196;-81
2020/12/13 05:00:56;;;;;;;3.10;2.80;;;8.60;99.90;;;;;;10197275;29;20241;-80
2020/12/13 05:05:58;;;;;;;3.40;3.20;;;8.60;99.90;;;;;;10186214;29;20292;-81
2020/12/13 05:11:01;;;;;;;3.20;3.00;;;8.70;99.90;;;;;;10199659;29;20197;-81
2020/12/13 05:16:06;;;;;;;3.57;3.27;;;8.70;99.90;;;;;;10187958;29;20685;-81
2020/12/13 05:21:08;;;;;;;4.30;3.30;;;8.70;99.90;;;;;;10191967;29;20754;-82
2020/12/13 05:26:11;;;;;;;3.10;2.90;;;8.70;99.90;;;;;;10205104;29;20235;-80
2020/12/13 05:31:14;;;;;;;2.93;2.73;;;8.70;99.90;;;;;;10222289;29;20207;-81
2020/12/13 05:36:18;;;;;;;3.10;2.90;;;8.80;99.90;;;;;;10194622;29;20286;-80
2020/12/13 05:41:20;;;;;;;2.90;2.70;;;8.80;99.90;;;;;;10210100;29;20208;-81
2020/12/13 05:46:43;;;;;;;2.77;2.57;;;8.80;99.90;;;;;;10225300;29;20236;-82
2020/12/13 05:51:46;;;;;;;2.60;2.40;;;8.80;99.90;;;;;;10200145;29;20264;-82
2020/12/13 05:56:52;;;;;;;2.40;2.30;;;8.80;99.90;;;;;;10223672;29;20729;-81
2020/12/13 06:01:55;;;;;;;2.10;2.00;;;8.80;99.90;;;;;;10208865;29;20213;-81
2020/12/13 06:06:58;;;;;;;2.40;2.20;;;8.80;99.90;;;;;;10228132;29;20248;-81
2020/12/13 06:12:03;;;;;;;2.10;1.90;;;8.90;99.90;;;;;;10205970;29;20634;-82
2020/12/13 06:17:04;;;;;;;2.27;2.17;;;8.90;99.90;;;;;;10199316;29;20260;-81
2020/12/13 06:22:07;;;;;;;2.40;2.30;;;8.90;99.90;;;;;;10223113;29;20204;-81
2020/12/13 06:27:10;;;;;;;2.30;2.20;;;8.90;99.90;;;;;;10217337;29;20677;-80
2020/12/13 06:32:12;;;;;;;2.40;2.20;;;8.90;99.90;;;;;;10211650;29;20229;-81
2020/12/13 06:37:14;;;;;;;2.50;2.27;;;8.90;99.90;;;;;;10204640;29;20249;-81
2020/12/13 06:42:25;;;;;;;2.17;2.07;;;9.00;99.90;;;;;;10208375;29;20553;-82
2020/12/13 06:47:26;;;;;;;2.23;2.13;;;9.00;99.90;;;;;;10227092;29;20661;-79
2020/12/13 06:52:32;;;;;;;2.07;1.97;;;9.00;99.90;;;;;;10203171;29;20695;-80
2020/12/13 06:57:35;;;;;;;2.23;2.13;;;9.00;99.90;;;;;;10202878;29;20653;-80
2020/12/13 07:02:57;;;;;;;2.60;2.50;;;9.00;99.90;;;;;;10212410;29;20558;-81
2020/12/13 07:07:58;;;;;;;2.20;2.10;;;9.00;99.90;;;;;;10218689;29;20221;-80
2020/12/13 07:13:02;;;;;;;2.90;2.03;;;9.00;99.90;;;;;;10218667;29;20236;-81
2020/12/13 07:18:05;;;;;;;2.07;1.97;;;9.00;99.90;;;;;;10211522;29;20221;-81
2020/12/13 07:23:07;;;;;;;2.07;1.87;;;9.00;99.90;;;;;;10224993;29;20205;-80
2020/12/13 07:28:11;;;;;;;1.97;1.83;;;9.00;99.90;;;;;;10205797;29;20245;-80
2020/12/13 07:33:12;;;;;;;1.87;1.77;;;9.00;99.90;;;;;;10233061;29;20449;-82
2020/12/13 07:38:14;;;;;;;5.90;2.07;;;9.00;99.90;;;;;;10189109;29;20220;-82
2020/12/13 07:43:17;;;;;;;2.00;1.80;;;9.00;99.90;;;;;;10237061;29;20197;-81
2020/12/13 07:48:18;;;;;;;2.00;1.90;;;9.00;99.90;;;;;;10193802;29;20288;-81
2020/12/13 07:53:24;;;;;;;2.00;1.90;;;9.00;99.90;;;;;;10192300;29;20678;-80
2020/12/13 07:58:27;;;;;;;2.00;1.90;;;9.00;99.90;;;;;;10206476;29;20228;-81
2020/12/13 08:03:28;;;;;;;2.00;1.90;;;9.00;99.90;;;;;;10221257;29;20621;-81
2020/12/13 08:08:42;;;;;;;1.70;1.60;;;9.00;99.90;;;;;;10217323;29;20224;-81
2020/12/13 08:13:48;;;;;;;2.00;1.90;;;8.90;99.90;;;;;;10202955;29;20197;-82
2020/12/13 08:18:52;;;;;;;1.97;1.87;;;8.90;99.90;;;;;;10206789;29;20307;-79
2020/12/13 08:23:57;;;;;;;2.20;2.10;;;8.90;99.90;;;;;;10193191;29;20212;-81
2020/12/13 08:29:02;;;;;;;2.10;2.00;;;8.90;99.90;;;;;;10226920;29;21405;-80
2020/12/13 08:34:05;;;;;;;2.10;2.00;;;8.80;99.90;;;;;;10232010;29;20228;-79
2020/12/13 08:39:09;;;;;;;2.33;2.23;;;8.80;99.90;;;;;;10224285;29;20225;-80
2020/12/13 08:44:29;;;;;;;2.40;2.20;;;8.80;99.90;;;;;;10234621;29;20265;-79
2020/12/13 08:49:33;;;;;;;2.70;2.50;;;8.80;99.90;;;;;;10200452;29;20216;-81
2020/12/13 08:54:44;;;;;;;3.20;2.63;;;8.80;99.90;;;;;;10213683;29;20205;-80
2020/12/13 08:59:57;;;;;;;2.77;2.57;;;8.80;99.90;;;;;;10229503;29;20225;-81
2020/12/13 09:05:00;;;;;;;2.90;2.70;;;8.90;99.90;;;;;;10229964;29;20264;-79
2020/12/13 09:10:12;;;;;;;3.00;2.80;;;9.00;99.90;;;;;;10220565;29;20217;-80
2020/12/13 09:15:16;;;;;;;2.80;2.60;;;9.10;99.90;;;;;;10236769;29;20193;-80
2020/12/13 09:20:24;;;;;;;2.90;2.67;;;9.10;99.90;;;;;;10203082;29;20224;-81
2020/12/13 09:25:25;;;;;;;5.07;4.67;;;9.20;99.90;;;;;;10222329;29;20221;-80
2020/12/13 09:30:28;;;;;;;4.50;4.20;;;9.30;99.90;;;;;;10195835;29;20225;-80
2020/12/13 09:35:31;;;;;;;3.83;3.53;;;9.40;99.90;;;;;;10253122;28;20295;-80
2020/12/13 09:40:33;;;;;;;3.60;3.30;;;9.40;99.90;;;;;;10229373;29;20686;-80
2020/12/13 09:45:35;;;;;;;3.47;3.20;;;9.50;99.90;;;;;;10237590;29;20697;-80
2020/12/13 09:50:36;;;;;;;3.17;2.97;;;9.60;99.90;;;;;;10189851;29;20235;-81
2020/12/13 09:55:38;;;;;;;3.20;2.83;;;9.70;99.90;;;;;;10202750;29;20220;-81
2020/12/13 10:00:41;;;;;;;4.10;3.80;;;9.70;99.90;;;;;;10202969;29;20237;-81
2020/12/13 10:05:56;;;;;;;3.80;3.50;;;9.80;99.90;;;;;;10218987;29;20220;-82
2020/12/13 10:10:58;;;;;;;3.80;3.50;;;9.90;99.90;;;;;;10205614;29;20311;-81
2020/12/13 10:16:01;;;;;;;4.07;3.67;;;10.00;99.90;;;;;;10230393;29;20578;-82
2020/12/13 10:21:02;;;;;;;3.73;3.40;;;10.00;99.90;;;;;;10194999;29;20209;-82
2020/12/13 10:26:04;;;;;;;3.77;3.47;;;10.10;99.90;;;;;;10223485;29;20251;-82
2020/12/13 10:31:10;;;;;;;3.33;3.03;;;10.00;99.90;;;;;;10222613;29;20201;-82
2020/12/13 10:36:13;;;;;;;3.50;3.10;;;10.10;99.90;;;;;;10205955;29;20253;-82
2020/12/13 10:41:16;;;;;;;2.70;2.50;;;10.10;99.90;;;;;;10192044;29;20319;-82
2020/12/13 10:46:19;;;;;;;3.03;2.83;;;10.10;99.90;;;;;;10203876;29;20217;-81
2020/12/13 10:51:20;;;;;;;3.17;2.60;;;10.10;99.90;;;;;;10226473;29;20244;-80
2020/12/13 10:56:23;;;;;;;2.27;2.07;;;10.10;99.90;;;;;;10191607;29;20221;-81
2020/12/13 11:01:25;;;;;;;1.90;1.80;;;10.10;99.90;;;;;;10192469;29;20201;-80
2020/12/13 11:06:28;;;;;;;1.83;1.73;;;10.20;99.90;;;;;;10214372;29;20231;-81
2020/12/13 11:11:29;;;;;;;1.83;1.70;;;10.20;99.90;;;;;;10217113;29;20288;-81
2020/12/13 11:16:32;;;;;;;2.00;1.90;;;10.10;99.90;;;;;;10216712;29;20225;-80
2020/12/13 11:21:34;;;;;;;2.23;1.83;;;10.00;99.90;;;;;;10200930;29;20737;-81
2020/12/13 11:26:36;;;;;;;2.53;2.30;;;10.10;99.90;;;;;;10201136;29;20248;-80
2020/12/13 11:31:38;;;;;;;2.50;2.30;;;10.20;99.90;;;;;;10180560;29;20212;-80
2020/12/13 11:36:40;;;;;;;9.83;7.03;;;10.20;99.90;;;;;;10212741;29;20245;-80
2020/12/13 11:41:41;;;;;;;3.23;2.93;;;10.20;99.90;;;;;;10204586;29;20204;-80
2020/12/13 11:46:47;;;;;;;3.00;2.80;;;10.20;99.90;;;;;;10212927;29;20229;-78
2020/12/13 11:51:49;;;;;;;2.83;2.00;;;10.20;99.90;;;;;;10193125;29;20289;-81
2020/12/13 11:56:50;;;;;;;2.93;2.63;;;10.20;99.90;;;;;;10181684;29;20705;-80
2020/12/13 12:01:53;;;;;;;2.33;2.13;;;10.10;99.90;;;;;;10215668;29;20261;-80
2020/12/13 12:06:55;;;;;;;3.10;2.70;;;10.10;99.90;;;;;;10193253;29;20226;-80
2020/12/13 12:11:57;;;;;;;3.37;3.07;;;10.10;99.90;;;;;;10213432;29;20229;-80
2020/12/13 12:17:02;;;;;;;2.30;2.07;;;10.00;99.90;;;;;;10179397;29;20300;-80
2020/12/13 12:22:04;;;;;;;2.63;2.47;;;10.00;99.90;;;;;;10200409;29;20205;-80
2020/12/13 12:27:08;;;;;;;3.63;2.70;;;10.00;99.90;;;;;;10192828;29;20239;-79
2020/12/13 12:32:10;;;;;;;2.30;2.10;;;10.00;99.90;;;;;;10208492;29;20212;-80
2020/12/13 12:37:12;;;;;;;3.57;2.73;;;9.90;99.90;;;;;;10173913;29;20221;-80
2020/12/13 12:42:14;;;;;;;3.20;2.23;;;10.00;99.90;;;;;;10208761;29;20224;-79
2020/12/13 12:47:16;;;;;;;2.23;2.03;;;10.00;99.90;;;;;;10194618;29;20319;-80
2020/12/13 12:52:18;;;;;;;2.30;2.10;;;10.10;99.90;;;;;;10188647;29;20194;-80
2020/12/13 12:57:19;;;;;;;2.93;2.63;;;10.10;99.90;;;;;;10198227;29;20236;-80
2020/12/13 13:02:23;;;;;;;2.70;2.30;;;10.00;99.90;;;;;;10207605;29;20198;-80
2020/12/13 13:07:27;;;;;;;2.20;2.10;;;9.90;99.90;;;;;;10218423;29;20653;-80
2020/12/13 13:12:28;;;;;;;3.97;2.50;;;9.90;99.90;;;;;;10243382;29;20200;-79
2020/12/13 13:17:34;;;;;;;3.50;2.60;;;9.90;99.90;;;;;;10243102;29;20232;-80
2020/12/13 13:22:35;;;;;;;5.53;2.60;;;10.00;99.90;;;;;;10251397;29;20273;-81
2020/12/13 13:27:37;;;;;;;2.93;2.63;;;9.90;99.90;;;;;;10222300;29;20320;-80
2020/12/13 13:32:40;;;;;;;2.80;2.60;;;9.90;99.90;;;;;;10255094;29;20207;-80
2020/12/13 13:37:41;;;;;;;3.50;2.57;;;9.90;99.90;;;;;;10265872;29;20219;-81
2020/12/13 13:42:43;;;;;;;3.17;2.73;;;9.90;99.90;;;;;;10235154;29;20209;-81
2020/12/13 13:48:05;;;;;;;3.30;3.00;;;9.90;99.90;;;;;;10221828;29;20225;-80
2020/12/13 13:53:07;;;;;;;3.13;2.83;;;9.90;99.90;;;;;;10218824;29;20201;-79
2020/12/13 13:58:09;;;;;;;3.27;2.97;;;9.90;99.90;;;;;;10207860;29;20677;-79
2020/12/13 14:03:12;;;;;;;3.37;3.10;;;9.80;99.90;;;;;;10201267;29;20264;-81
2020/12/13 14:08:41;;;;;;;2.53;2.33;;;9.80;99.90;;;;;;10216666;29;20222;-81
2020/12/13 14:13:43;;;;;;;2.53;2.33;;;9.70;99.90;;;;;;10214846;29;20209;-81
2020/12/13 14:18:46;;;;;;;3.10;2.90;;;9.70;99.90;;;;;;10188832;29;20213;-80
2020/12/13 14:23:47;;;;;;;3.30;3.10;;;9.60;99.90;;;;;;10196633;29;20197;-81
2020/12/13 14:28:49;;;;;;;6.07;3.00;;;9.60;99.90;;;;;;10190985;29;20221;-80
2020/12/13 14:33:51;;;;;;;2.87;2.67;;;9.60;99.90;;;;;;10211341;29;20296;-80
2020/12/13 14:38:54;;;;;;;5.00;3.40;;;9.50;99.90;;;;;;10221951;29;20217;-80
2020/12/13 14:43:56;;;;;;;6.23;4.47;;;9.60;99.90;;;;;;10212736;29;20193;-79
2020/12/13 14:48:59;;;;;;;7.77;5.67;;;9.50;99.90;;;;;;10202570;29;20702;-80
2020/12/13 14:54:00;;;;;;;7.67;6.17;;;9.50;99.90;;;;;;10186423;29;20678;-79
2020/12/13 14:59:02;;;;;;;3.50;2.80;;;9.50;99.90;;;;;;10184649;29;20240;-82
2020/12/13 15:04:04;;;;;;;2.93;2.73;;;9.50;99.90;;;;;;10220937;29;20202;-80
2020/12/13 15:09:06;;;;;;;3.33;2.50;;;9.40;99.90;;;;;;10212700;29;20229;-83
2020/12/13 15:14:11;;;;;;;3.20;2.90;;;9.40;99.90;;;;;;10242282;29;20240;-80
2020/12/13 15:19:14;;;;;;;4.17;3.80;;;9.30;99.90;;;;;;10250052;28;20243;-79
2020/12/13 15:24:15;;;;;;;4.83;4.20;;;9.30;99.90;;;;;;10220047;29;20211;-78
2020/12/13 15:29:17;;;;;;;4.03;3.40;;;9.30;99.90;;;;;;10217129;29;20229;-78
2020/12/13 15:34:20;;;;;;;4.57;3.80;;;9.30;99.90;;;;;;10216504;29;20304;-80
2020/12/13 15:39:22;;;;;;;2.87;2.67;;;9.20;99.90;;;;;;10245598;29;20672;-79
2020/12/13 15:44:25;;;;;;;3.63;3.33;;;9.20;99.90;;;;;;10229385;29;20261;-79
2020/12/13 15:49:28;;;;;;;5.50;4.47;;;9.20;99.90;;;;;;10234226;29;20224;-79
2020/12/13 15:54:29;;;;;;;6.00;5.50;;;9.20;99.90;;;;;;10222312;29;20220;-80
2020/12/13 15:59:31;;;;;;;4.03;3.50;;;9.20;99.90;;;;;;10215102;29;20312;-79
2020/12/13 16:04:33;;;;;;;3.50;3.20;;;9.20;99.90;;;;;;10188288;29;20211;-79
2020/12/13 16:09:35;;;;;;;4.43;4.07;;;9.20;99.90;;;;;;10196119;29;20323;-80
2020/12/13 16:14:36;;;;;;;4.63;4.10;;;9.10;99.90;;;;;;10197102;29;20213;-82
2020/12/13 16:19:39;;;;;;;4.67;4.37;;;9.20;99.90;;;;;;10178358;29;20228;-81
2020/12/13 16:24:41;;;;;;;4.20;3.90;;;9.20;99.90;;;;;;10195734;29;20205;-81
2020/12/13 16:29:43;;;;;;;5.10;4.53;;;9.10;99.90;;;;;;10205331;29;20315;-78
2020/12/13 16:34:45;;;;;;;4.77;4.37;;;9.20;99.90;;;;;;10144367;29;20206;-80
2020/12/13 16:39:49;;;;;;;4.33;4.03;;;9.10;99.90;;;;;;10205430;29;20701;-80
2020/12/13 16:44:50;;;;;;;3.67;3.33;;;9.10;99.90;;;;;;10207400;29;20213;-80
2020/12/13 16:50:15;;;;;;;4.80;4.30;;;9.10;99.90;;;;;;10226027;29;20228;-80
2020/12/13 16:55:17;;;;;;;3.80;3.50;;;9.10;99.90;;;;;;10177059;29;20265;-82
2020/12/13 17:00:19;;;;;;;4.83;4.00;;;9.10;99.90;;;;;;10233118;29;20232;-80
2020/12/13 17:05:21;;;;;;;4.37;4.03;;;9.10;99.90;;;;;;10249790;29;20212;-80
2020/12/13 17:10:23;;;;;;;4.10;3.80;;;9.10;99.90;;;;;;10252192;28;20235;-79
2020/12/13 17:15:25;;;;;;;4.10;3.80;;;9.10;99.90;;;;;;10237103;29;20216;-79
2020/12/13 17:20:28;;;;;;;4.23;3.83;;;9.10;99.90;;;;;;10215523;29;20288;-78
2020/12/13 17:25:30;;;;;;;3.60;3.30;;;9.10;99.90;;;;;;10182809;29;20209;-80
2020/12/13 17:30:31;;;;;;;3.77;3.47;;;9.00;99.90;;;;;;10206896;29;20228;-78
2020/12/13 17:35:34;;;;;;;4.27;3.90;;;9.00;99.90;;;;;;10244737;29;20201;-79
2020/12/13 17:40:36;;;;;;;5.50;5.00;;;9.00;99.90;;;;;;10214935;29;20783;-80
2020/12/13 17:45:38;;;;;;;8.70;6.37;;;9.00;99.90;;;;;;10197016;29;20235;-79
2020/12/13 17:50:54;;;;;;;6.83;6.27;;;9.00;99.90;;;;;;10214640;29;20229;-80
2020/12/13 17:56:07;;;;;;;14.53;10.53;;;9.00;99.90;;;;;;10204230;29;20308;-79
2020/12/13 18:01:10;;;;;;;11.10;9.30;;;9.00;99.90;;;;;;10218247;29;20201;-79
2020/12/13 18:06:13;;;;;;;13.03;10.53;;;8.90;99.90;;;;;;10211745;29;20701;-78
2020/12/13 18:11:16;;;;;;;6.90;6.17;;;8.80;99.90;;;;;;10223843;29;20228;-79
2020/12/13 18:16:18;;;;;;;6.80;6.10;;;8.60;99.90;;;;;;10187611;29;20212;-79
2020/12/13 18:21:24;;;;;;;11.67;6.17;;;8.40;99.90;;;;;;10207601;29;20465;-79
2020/12/13 18:26:26;;;;;;;5.43;5.03;;;8.20;99.90;;;;;;10211155;29;20225;-79
2020/12/13 18:31:28;;;;;;;6.20;5.67;;;8.00;99.90;;;;;;10208986;29;20296;-79
2020/12/13 18:36:30;;;;;;;6.30;5.70;;;7.80;99.90;;;;;;10188557;29;20300;-82
2020/12/13 18:41:32;;;;;;;5.70;5.20;;;7.70;99.90;;;;;;10250469;29;20200;-81
2020/12/13 18:46:34;;;;;;;7.43;5.63;;;7.50;99.90;;;;;;10238238;29;20232;-80
2020/12/13 18:51:36;;;;;;;4.97;4.53;;;7.40;99.90;;;;;;10251918;29;20289;-79
2020/12/13 18:56:38;;;;;;;4.17;3.87;;;7.30;99.90;;;;;;10198030;29;20236;-82
2020/12/13 19:01:44;;;;;;;4.20;3.50;;;7.20;99.90;;;;;;10200026;29;20288;-81
2020/12/13 19:06:51;;;;;;;5.83;5.33;;;7.10;99.90;;;;;;10214356;29;20213;-80
2020/12/13 19:11:55;;;;;;;5.67;5.17;;;7.10;99.90;;;;;;10183313;29;20194;-78
2020/12/13 19:16:56;;;;;;;4.97;4.60;;;7.00;99.90;;;;;;10190979;29;20669;-80
2020/12/13 19:22:00;;;;;;;6.40;5.80;;;6.90;99.90;;;;;;10216927;29;20204;-80
2020/12/13 19:27:02;;;;;;;7.20;6.60;;;6.90;99.90;;;;;;10216318;29;20225;-79
2020/12/13 19:32:03;;;;;;;6.43;5.93;;;6.90;99.90;;;;;;10226732;23;20736;-79
2020/12/13 19:37:06;;;;;;;6.57;5.97;;;7.00;99.90;;;;;;10262182;28;20200;-79
2020/12/13 19:42:08;;;;;;;6.50;6.00;;;7.00;99.90;;;;;;10225479;29;20225;-79
2020/12/13 19:47:11;;;;;;;5.90;5.40;;;7.10;99.90;;;;;;10239948;29;20229;-79
2020/12/13 19:52:13;;;;;;;5.77;5.13;;;7.10;99.90;;;;;;10204250;29;20358;-79
2020/12/13 19:57:16;;;;;;;5.10;4.70;;;7.20;99.90;;;;;;10176937;29;20632;-79
2020/12/13 20:02:18;;;;;;;5.23;4.73;;;7.20;99.90;;;;;;10232399;29;20264;-79
2020/12/13 20:07:20;;;;;;;4.63;4.33;;;7.30;99.90;;;;;;10232468;28;20953;-79
2020/12/13 20:12:22;;;;;;;4.97;4.57;;;7.20;99.90;;;;;;10223180;29;20650;-79
2020/12/13 20:17:39;;;;;;;6.00;5.50;;;7.20;99.90;;;;;;10235572;29;20220;-79
2020/12/13 20:23:20;;;;;;;4.77;4.40;;;7.30;99.90;;;;;;10200498;29;20251;-79
2020/12/13 20:56:34;;;;;;;5.70;5.30;;;7.40;99.90;;;;;;10097436;29;20226;-79
2020/12/13 21:17:30;;;;;;;5.00;4.60;;;7.50;99.90;;;;;;10241320;28;20247;-79
2020/12/13 21:22:33;;;;;;;5.77;5.23;;;7.50;99.90;;;;;;10201839;29;20669;-79
2020/12/13 21:49:21;;;;;;;5.70;5.20;;;7.60;99.90;;;;;;10220701;29;20276;-79
2020/12/13 21:54:33;;;;;;;5.00;4.60;;;7.60;99.90;;;;;;10236271;29;20228;-79
2020/12/13 21:59:42;;;;;;;5.60;5.10;;;7.60;99.90;;;;;;10228293;29;20253;-79
2020/12/13 22:26:36;;;;;;;6.03;5.43;;;7.60;99.90;;;;;;10224500;29;20319;-80
2020/12/13 22:31:39;;;;;;;5.20;4.80;;;7.60;99.90;;;;;;10208147;28;20574;-79
2020/12/13 22:36:41;;;;;;;6.03;5.60;;;7.60;99.90;;;;;;10218139;29;20300;-79
2020/12/13 22:41:43;;;;;;;6.27;5.70;;;7.50;99.90;;;;;;10259933;28;20227;-80
2020/12/13 22:46:45;;;;;;;6.43;5.93;;;7.40;99.90;;;;;;10255940;28;20235;-79
2020/12/13 22:51:47;;;;;;;6.00;5.50;;;7.40;99.90;;;;;;10247347;29;20228;-79
2020/12/13 22:56:49;;;;;;;5.17;4.80;;;7.50;99.90;;;;;;10232204;28;20208;-79
2020/12/13 23:01:51;;;;;;;4.80;4.40;;;7.50;99.90;;;;;;10256460;28;20220;-79
2020/12/13 23:06:53;;;;;;;5.20;4.80;;;7.50;99.90;;;;;;10202810;29;20646;-79
2020/12/13 23:11:55;;;;;;;5.37;4.87;;;7.50;99.90;;;;;;10229244;29;20238;-79
2020/12/13 23:16:57;;;;;;;4.93;4.53;;;7.40;99.90;;;;;;10228804;29;20382;-79
2020/12/13 23:21:59;;;;;;;5.17;4.80;;;7.30;99.90;;;;;;10213593;29;20242;-78
2020/12/13 23:27:01;;;;;;;4.93;4.53;;;7.20;99.90;;;;;;10214266;29;20428;-79
2020/12/13 23:32:03;;;;;;;5.00;4.60;;;7.10;99.90;;;;;;10246403;28;20677;-79
2020/12/13 23:37:05;;;;;;;5.03;4.53;;;7.00;99.90;;;;;;10230031;29;20884;-79
2020/12/13 23:42:07;;;;;;;4.53;4.23;;;6.80;99.90;;;;;;10216779;29;20294;-79
2020/12/13 23:47:10;;;;;;;5.00;4.70;;;6.70;99.90;;;;;;10264901;28;20232;-79
2020/12/13 23:52:12;;;;;;;4.43;4.13;;;6.50;99.90;;;;;;10237630;28;20257;-79
2020/12/13 23:57:13;;;;;;;4.43;4.13;;;6.40;99.90;;;;;;10235704;29;20207;-79
